Time;durP1;ratioP1;P1;durP2;ratioP2;P2;SDS_P1;SDS_P2;PMS_P1;PMS_P2;Temp;Humidity;BMP_temperature;BMP_pressure;BME280_temperature;BME280_humidity;BME280_pressure;Samples;Min_cycle;Max_cycle;Signal;HPM_P1;HPM_P2
2021/04/16 00:00:59;;;;;;;7.10;4.20;;;;;;;1.05;80.71;95746.44;1819143;79;21144;-68
2021/04/16 00:03:27;;;;;;;15.77;6.63;;;;;;;1.00;81.39;95754.56;1819090;79;21101;-68
2021/04/16 00:05:56;;;;;;;13.43;5.07;;;;;;;1.00;81.10;95748.07;1819182;79;21153;-69
2021/04/16 00:08:31;;;;;;;8.70;5.80;;;;;;;0.88;81.99;95748.68;1819278;79;21140;-68
2021/04/16 00:11:07;;;;;;;7.83;4.77;;;;;;;0.88;81.13;95743.91;1819403;79;21137;-68
2021/04/16 00:13:35;;;;;;;6.77;3.67;;;;;;;0.83;81.70;95747.70;1818362;79;21098;-68
2021/04/16 00:16:07;;;;;;;6.23;3.63;;;;;;;0.82;81.02;95742.94;1819171;79;21138;-68
2021/04/16 00:18:35;;;;;;;6.30;3.63;;;;;;;0.81;80.57;95742.50;1819072;79;21546;-68
2021/04/16 00:21:03;;;;;;;5.67;4.00;;;;;;;0.80;80.35;95739.43;1819728;79;21276;-68
2021/04/16 00:23:31;;;;;;;7.23;4.33;;;;;;;0.80;80.19;95735.53;1819585;79;21266;-68
2021/04/16 00:26:01;;;;;;;5.43;4.43;;;;;;;0.81;80.75;95735.14;1819255;79;21149;-68
2021/04/16 00:28:29;;;;;;;5.77;4.40;;;;;;;0.73;80.65;95738.88;1819086;79;21599;-68
2021/04/16 00:31:01;;;;;;;6.30;4.30;;;;;;;0.76;80.50;95735.47;1819307;79;21117;-68
2021/04/16 00:33:30;;;;;;;5.22;4.03;;;;;;;0.75;80.39;95738.45;1819320;79;21124;-68
2021/04/16 00:35:58;;;;;;;5.77;4.23;;;;;;;0.64;80.52;95729.58;1819413;79;21570;-68
2021/04/16 00:38:26;;;;;;;8.63;5.73;;;;;;;0.79;81.40;95738.98;1819179;79;21129;-68
2021/04/16 00:40:59;;;;;;;8.67;4.27;;;;;;;0.83;81.44;95733.03;1819175;79;21145;-68
2021/04/16 00:43:30;;;;;;;5.10;3.80;;;;;;;0.83;81.05;95731.73;1819172;79;21117;-68
2021/04/16 00:46:15;;;;;;;5.97;4.23;;;;;;;0.79;80.91;95729.03;1819156;79;21168;-68
2021/04/16 00:48:53;;;;;;;11.07;5.03;;;;;;;0.75;81.64;95733.27;1808108;79;21551;-70
2021/04/16 00:51:44;;;;;;;11.07;5.07;;;;;;;0.75;81.61;95728.50;1782216;79;21124;-70
2021/04/16 00:54:17;;;;;;;8.93;5.50;;;;;;;0.74;81.56;95726.75;1819199;78;21082;-70
2021/04/16 00:56:48;;;;;;;10.10;5.58;;;;;;;0.77;81.42;95731.58;1819564;78;21086;-70
2021/04/16 00:59:21;;;;;;;7.43;4.40;;;;;;;0.89;81.62;95727.50;1819401;79;21125;-70
2021/04/16 01:01:48;;;;;;;7.03;4.40;;;;;;;0.98;81.65;95727.27;1819642;79;21152;-70
2021/04/16 01:04:16;;;;;;;7.07;4.60;;;;;;;1.00;81.42;95716.89;1819074;79;21940;-70
2021/04/16 01:06:44;;;;;;;8.57;5.93;;;;;;;1.10;81.29;95721.85;1819405;79;21148;-70
2021/04/16 01:09:12;;;;;;;13.97;4.77;;;;;;;1.16;80.89;95718.06;1819072;78;21101;-70
2021/04/16 01:11:39;;;;;;;8.90;5.07;;;;;;;1.21;80.75;95721.23;1819124;78;21140;-70
2021/04/16 01:14:08;;;;;;;8.27;5.10;;;;;;;1.17;80.47;95723.30;1819413;79;21093;-70
2021/04/16 01:16:36;;;;;;;7.93;5.03;;;;;;;1.18;80.21;95722.88;1819282;79;21518;-71
2021/04/16 01:19:42;;;;;;;7.93;4.67;;;;;;;1.21;79.92;95717.73;1819011;79;21571;-70
2021/04/16 01:22:35;;;;;;;8.07;5.03;;;;;;;1.20;79.64;95720.75;1818309;79;21153;-70
2021/04/16 01:25:06;;;;;;;;;;;;;;;1.19;79.38;95716.84;1790267;79;21579;-70
2021/04/16 01:27:34;;;;;;;6.27;4.40;;;;;;;1.18;79.30;95713.34;1824559;79;20148;-70
2021/04/16 01:30:13;;;;;;;6.83;4.37;;;;;;;1.08;79.22;95720.51;1824866;79;21133;-70
2021/04/16 01:32:40;;;;;;;5.50;3.90;;;;;;;1.08;79.81;95722.72;1824861;79;21534;-70
2021/04/16 01:35:13;;;;;;;7.47;4.30;;;;;;;1.02;79.47;95717.37;1825516;79;21133;-70
2021/04/16 01:37:41;;;;;;;6.08;3.80;;;;;;;0.91;80.34;95711.11;1824951;79;21137;-70
2021/04/16 01:40:13;;;;;;;6.40;4.50;;;;;;;0.93;80.56;95719.78;1825147;79;21141;-70
2021/04/16 01:42:40;;;;;;;12.30;7.27;;;;;;;0.94;81.30;95716.78;1825028;79;21562;-70
2021/04/16 01:45:19;;;;;;;13.60;8.40;;;;;;;0.88;81.73;95715.34;1825190;79;21141;-70
2021/04/16 01:47:56;;;;;;;35.07;14.97;;;;;;;0.89;81.96;95709.31;1824822;78;21148;-70
2021/04/16 01:50:25;;;;;;;59.17;21.90;;;;;;;0.92;82.12;95713.27;1786149;80;21136;-70
2021/04/16 01:52:54;;;;;;;50.00;18.53;;;;;;;0.95;81.99;95714.62;1755083;81;21583;-70
2021/04/16 01:55:21;;;;;;;13.63;5.60;;;;;;;0.96;81.97;95712.07;1769959;81;21166;-70
2021/04/16 01:57:49;;;;;;;14.17;7.47;;;;;;;1.01;81.93;95714.34;1755117;82;21156;-70
2021/04/16 02:00:33;;;;;;;42.57;17.33;;;;;;;1.02;82.04;95712.18;1769876;81;21152;-70
2021/04/16 02:03:00;;;;;;;10.50;5.67;;;;;;;1.03;82.69;95707.45;1754850;82;21121;-70
2021/04/16 02:05:28;;;;;;;5.37;3.67;;;;;;;1.05;82.06;95707.03;1786070;80;21149;-70
2021/04/16 02:07:56;;;;;;;9.60;5.43;;;;;;;1.07;81.79;95707.08;1727612;82;21164;-68
2021/04/16 02:10:24;;;;;;;12.07;5.70;;;;;;;1.10;82.66;95698.47;1770233;81;21163;-68
2021/04/16 02:12:52;;;;;;;45.57;18.07;;;;;;;1.14;82.88;95698.56;1754976;81;21148;-69
2021/04/16 02:15:20;;;;;;;95.87;31.70;;;;;;;1.14;82.85;95695.96;1770237;81;21136;-68
2021/04/16 02:17:48;;;;;;;69.90;23.83;;;;;;;1.08;82.59;95694.53;1769909;81;21140;-68
2021/04/16 02:20:21;;;;;;;65.63;22.50;;;;;;;1.01;82.41;95702.64;1769887;81;21161;-68
2021/04/16 02:22:50;;;;;;;71.33;24.73;;;;;;;1.03;82.75;95701.36;1770284;81;21152;-70
2021/04/16 02:25:18;;;;;;;47.83;18.10;;;;;;;1.01;83.00;95705.24;1769936;81;21176;-70
2021/04/16 02:27:46;;;;;;;65.77;21.13;;;;;;;0.98;82.86;95705.19;1750159;82;21177;-68
2021/04/16 02:30:19;;;;;;;19.80;8.33;;;;;;;0.95;83.38;95701.20;1780327;80;21137;-68
2021/04/16 02:32:48;;;;;;;19.30;9.60;;;;;;;1.00;83.21;95698.70;1749640;82;21141;-71
2021/04/16 02:35:16;;;;;;;6.73;3.83;;;;;;;0.96;82.95;95691.29;1787838;79;21148;-70
2021/04/16 02:37:44;;;;;;;10.27;4.67;;;;;;;1.02;82.38;95695.72;1819155;79;21136;-70
2021/04/16 02:40:17;;;;;;;5.67;3.67;;;;;;;1.03;80.60;95694.47;1819366;79;21101;-70
2021/04/16 02:42:45;;;;;;;6.72;4.42;;;;;;;1.11;80.69;95690.72;1819524;79;21128;-70
2021/04/16 02:45:15;;;;;;;7.53;5.00;;;;;;;1.11;80.98;95688.11;1819556;79;21172;-70
2021/04/16 02:47:43;;;;;;;11.17;4.30;;;;;;;1.12;80.54;95693.75;1819235;79;21116;-70
2021/04/16 02:50:16;;;;;;;6.40;4.27;;;;;;;1.08;80.74;95695.43;1819375;79;21109;-70
2021/04/16 02:52:44;;;;;;;6.30;4.47;;;;;;;1.10;80.69;95690.23;1819122;78;21117;-70
2021/04/16 02:55:12;;;;;;;6.60;5.03;;;;;;;1.09;80.30;95698.89;1819177;79;21144;-70
2021/04/16 02:57:39;;;;;;;5.90;4.20;;;;;;;1.07;79.77;95690.19;1819139;79;21603;-70
2021/04/16 03:00:11;;;;;;;4.37;3.53;;;;;;;1.04;79.93;95695.33;1819366;79;21124;-70
2021/04/16 03:02:39;;;;;;;6.60;3.90;;;;;;;1.03;79.92;95702.66;1819022;79;21141;-70
2021/04/16 03:05:08;;;;;;;6.67;4.27;;;;;;;0.98;79.66;95690.91;1819029;78;21571;-70
2021/04/16 03:07:36;;;;;;;5.27;3.73;;;;;;;0.87;79.62;95704.08;1819354;79;21110;-70
2021/04/16 03:10:07;;;;;;;5.07;2.97;;;;;;;0.79;79.57;95707.82;1819020;79;21132;-70
2021/04/16 03:12:35;;;;;;;5.00;3.70;;;;;;;0.78;79.88;95706.08;1819499;79;21089;-70
2021/04/16 03:15:05;;;;;;;6.47;4.60;;;;;;;0.75;79.70;95711.19;1819535;79;21160;-70
2021/04/16 03:17:34;;;;;;;5.10;4.07;;;;;;;0.71;79.64;95710.69;1819402;79;21132;-70
2021/04/16 03:20:03;;;;;;;7.03;4.97;;;;;;;0.70;79.64;95708.91;1819242;79;21105;-70
2021/04/16 03:22:30;;;;;;;6.23;4.47;;;;;;;0.71;79.67;95708.52;1787911;79;21566;-70
2021/04/16 03:24:58;;;;;;;6.40;4.53;;;;;;;0.73;79.47;95707.70;1819162;79;21176;-70
2021/04/16 03:27:26;;;;;;;8.30;4.80;;;;;;;0.74;79.58;95715.94;1823118;79;21148;-70
2021/04/16 03:29:53;;;;;;;6.03;4.20;;;;;;;0.73;79.41;95721.09;1824900;79;21156;-70
2021/04/16 03:32:21;;;;;;;6.50;4.13;;;;;;;0.71;79.43;95719.78;1825028;79;21578;-70
2021/04/16 03:34:49;;;;;;;6.10;4.33;;;;;;;0.69;79.43;95712.80;1825048;79;21606;-70
2021/04/16 03:37:17;;;;;;;6.73;4.80;;;;;;;0.67;79.93;95713.18;1824827;78;21144;-70
2021/04/16 03:39:44;;;;;;;4.63;3.47;;;;;;;0.64;80.02;95717.89;1824961;79;21137;-70
2021/04/16 03:42:12;;;;;;;6.57;4.67;;;;;;;0.64;79.85;95720.48;1824952;79;21535;-70
2021/04/16 03:44:40;;;;;;;5.43;4.30;;;;;;;0.58;80.08;95721.23;1824864;79;21145;-70
2021/04/16 03:47:08;;;;;;;5.40;3.97;;;;;;;0.58;80.16;95717.73;1824962;79;21141;-70
2021/04/16 03:49:36;;;;;;;5.67;4.17;;;;;;;0.52;80.25;95722.38;1824838;79;21161;-70
2021/04/16 03:52:05;;;;;;;5.40;3.93;;;;;;;0.52;80.30;95716.32;1795665;79;21128;-70
2021/04/16 03:54:33;;;;;;;7.50;4.80;;;;;;;0.49;80.14;95716.27;1824954;78;21132;-70
2021/04/16 03:57:02;;;;;;;6.10;4.13;;;;;;;0.42;80.18;95716.53;1824922;79;21097;-70
2021/04/16 03:59:29;;;;;;;9.43;4.60;;;;;;;0.43;80.30;95719.17;1825107;79;21579;-70
2021/04/16 04:01:57;;;;;;;6.33;4.20;;;;;;;0.48;80.22;95716.69;1825146;78;21101;-70
2021/04/16 04:04:25;;;;;;;5.90;4.17;;;;;;;0.49;80.34;95718.86;1824908;79;21582;-70
2021/04/16 04:06:52;;;;;;;6.00;4.23;;;;;;;0.41;80.33;95719.56;1824862;79;21587;-70
2021/04/16 04:09:21;;;;;;;5.93;4.03;;;;;;;0.38;80.29;95723.39;1825107;79;21153;-70
2021/04/16 04:11:51;;;;;;;7.70;4.83;;;;;;;0.33;80.19;95716.34;1825097;79;21125;-70
2021/04/16 04:14:20;;;;;;;7.07;4.33;;;;;;;0.30;80.27;95714.95;1824909;79;21108;-70
2021/04/16 04:16:54;;;;;;;4.37;2.57;;;;;;;0.31;80.44;95711.54;1824922;79;21539;-70
2021/04/16 04:19:24;;;;;;;20.67;9.67;;;;;;;0.35;80.07;95713.34;1824897;79;21555;-70
2021/04/16 04:21:55;;;;;;;15.63;8.63;;;;;;;0.53;79.97;95714.16;1824993;78;21109;-70
2021/04/16 04:24:23;;;;;;;15.73;6.97;;;;;;;0.61;79.93;95722.59;1825042;78;21136;-70
2021/04/16 04:26:52;;;;;;;12.63;6.50;;;;;;;0.66;79.98;95711.02;1824222;78;21109;-70
2021/04/16 04:29:24;;;;;;;5.53;3.53;;;;;;;0.71;80.15;95711.98;1822803;79;21280;-70
2021/04/16 04:31:52;;;;;;;6.97;4.10;;;;;;;0.73;80.07;95706.41;1823185;79;21125;-70
2021/04/16 04:34:24;;;;;;;6.13;4.50;;;;;;;0.75;79.63;95706.42;1822466;79;21274;-70
2021/04/16 04:36:56;;;;;;;7.73;5.17;;;;;;;0.85;79.24;95708.36;1822577;79;21161;-70
2021/04/16 04:39:26;;;;;;;5.27;3.67;;;;;;;0.97;79.00;95706.45;1822800;79;21117;-70
2021/04/16 04:41:54;;;;;;;6.40;4.13;;;;;;;1.15;77.47;95704.63;1822627;78;21256;-70
2021/04/16 04:44:23;;;;;;;4.57;3.60;;;;;;;1.24;76.93;95706.98;1822836;79;21141;-70
2021/04/16 04:46:50;;;;;;;7.80;5.47;;;;;;;1.29;76.60;95703.17;1823135;78;21152;-70
2021/04/16 04:49:21;;;;;;;22.73;12.63;;;;;;;1.39;76.11;95697.73;1822957;79;21128;-70
2021/04/16 04:52:11;;;;;;;8.50;4.63;;;;;;;1.41;76.40;95705.11;1756014;81;21140;-70
2021/04/16 04:54:46;;;;;;;4.93;3.73;;;;;;;1.43;76.00;95706.02;1773237;81;21113;-70
2021/04/16 04:57:18;;;;;;;14.23;8.43;;;;;;;1.50;75.74;95706.59;1742639;82;21705;-70
2021/04/16 04:59:46;;;;;;;6.90;4.80;;;;;;;1.61;75.93;95711.97;1773313;81;21128;-70
2021/04/16 05:02:17;;;;;;;6.00;3.60;;;;;;;1.76;74.72;95713.53;1743104;82;21290;-70
2021/04/16 05:04:46;;;;;;;7.03;4.80;;;;;;;1.88;74.53;95704.64;1773371;81;21689;-71
2021/04/16 05:07:14;;;;;;;7.00;3.77;;;;;;;2.02;74.08;95707.48;1726350;82;21705;-70
2021/04/16 05:09:42;;;;;;;5.83;3.80;;;;;;;2.14;72.39;95712.89;1773213;81;21278;-70
2021/04/16 05:12:12;;;;;;;4.07;2.87;;;;;;;2.22;71.79;95712.11;1743184;82;21286;-70
2021/04/16 05:14:39;;;;;;;5.70;3.90;;;;;;;2.23;71.52;95715.17;1773207;81;21161;-70
2021/04/16 05:17:07;;;;;;;5.90;3.67;;;;;;;2.29;71.85;95713.55;1742954;82;21306;-70
2021/04/16 05:19:35;;;;;;;4.77;3.23;;;;;;;2.43;71.79;95715.05;1741325;82;21168;-70
2021/04/16 05:22:05;;;;;;;4.83;3.27;;;;;;;2.58;71.55;95717.00;1773254;81;21164;-71
2021/04/16 05:24:34;;;;;;;6.43;2.97;;;;;;;2.68;71.49;95711.50;1743578;82;21132;-70
2021/04/16 05:27:07;;;;;;;5.87;4.23;;;;;;;2.74;70.37;95713.73;1770981;81;21571;-71
2021/04/16 05:29:36;;;;;;;5.17;3.65;;;;;;;2.78;70.39;95717.27;1764330;81;21140;-71
2021/04/16 05:32:06;;;;;;;5.13;3.53;;;;;;;2.87;69.35;95725.19;1749639;82;21583;-70
2021/04/16 05:34:33;;;;;;;5.40;4.07;;;;;;;2.87;68.51;95717.81;1756489;82;21590;-68
2021/04/16 05:37:02;;;;;;;5.83;4.67;;;;;;;2.89;68.32;95719.58;1749705;82;21587;-68
2021/04/16 05:39:29;;;;;;;5.73;3.67;;;;;;;2.95;68.49;95722.72;1756598;82;21184;-68
2021/04/16 05:41:57;;;;;;;4.70;3.10;;;;;;;2.86;67.66;95714.33;1749526;82;21137;-68
2021/04/16 05:44:24;;;;;;;6.37;4.57;;;;;;;2.79;67.46;95713.37;1756405;82;21168;-68
2021/04/16 05:46:52;;;;;;;3.27;1.90;;;;;;;2.76;66.99;95728.09;1749553;82;21122;-68
2021/04/16 05:49:24;;;;;;;6.43;4.50;;;;;;;2.76;66.39;95725.06;1756242;82;21200;-68
2021/04/16 05:51:53;;;;;;;4.60;3.70;;;;;;;2.87;66.51;95723.02;1749411;82;21141;-68
2021/04/16 05:54:21;;;;;;;2.23;1.60;;;;;;;2.97;65.64;95726.19;1747986;82;21592;-68
2021/04/16 05:56:48;;;;;;;4.70;3.70;;;;;;;3.08;66.37;95726.35;1749478;82;21564;-68
2021/04/16 05:59:15;;;;;;;5.33;4.50;;;;;;;3.23;66.90;95722.19;1819508;79;21274;-68
2021/04/16 06:01:44;;;;;;;5.90;4.40;;;;;;;3.36;66.27;95719.29;1819163;79;21566;-68
2021/04/16 06:04:22;;;;;;;3.93;3.17;;;;;;;3.31;64.38;95720.97;1819000;79;21587;-68
2021/04/16 06:06:49;;;;;;;5.43;3.37;;;;;;;3.34;65.28;95721.00;1819268;79;21583;-70
2021/04/16 06:09:17;;;;;;;5.30;3.90;;;;;;;3.30;64.62;95716.63;1819175;79;21133;-70
2021/04/16 06:11:45;;;;;;;4.77;3.27;;;;;;;3.37;64.65;95713.64;1818935;79;21546;-71
2021/04/16 06:14:14;;;;;;;4.00;3.20;;;;;;;3.39;65.22;95719.31;1819131;79;21129;-70
2021/04/16 06:16:41;;;;;;;3.60;2.43;;;;;;;3.36;63.93;95713.20;1819107;78;21112;-71
2021/04/16 06:19:09;;;;;;;6.23;3.67;;;;;;;3.38;65.54;95705.84;1818974;79;21188;-71
2021/04/16 06:21:36;;;;;;;4.53;3.27;;;;;;;3.47;64.96;95724.17;1819260;79;21133;-71
2021/04/16 06:24:04;;;;;;;1.73;1.63;;;;;;;3.47;64.15;95713.74;1819085;78;21149;-68
2021/04/16 06:26:32;;;;;;;3.10;1.77;;;;;;;3.50;62.33;95720.73;1818922;79;21149;-68
2021/04/16 06:29:03;;;;;;;3.50;2.40;;;;;;;3.48;63.37;95725.08;1819041;79;21157;-68
2021/04/16 06:31:31;;;;;;;4.00;2.70;;;;;;;3.44;62.41;95724.59;1819120;79;21113;-68
2021/04/16 06:33:59;;;;;;;4.33;3.43;;;;;;;3.51;63.90;95725.55;1819132;79;21114;-68
2021/04/16 06:36:27;;;;;;;5.83;4.53;;;;;;;3.46;64.62;95725.05;1819368;79;21121;-68
2021/04/16 06:38:54;;;;;;;3.87;3.23;;;;;;;3.37;63.98;95734.06;1819012;79;21157;-68
2021/04/16 06:41:30;;;;;;;4.27;3.70;;;;;;;3.41;64.92;95734.99;1819193;79;21157;-68
2021/04/16 06:44:11;;;;;;;4.77;3.57;;;;;;;3.57;62.80;95733.42;1819211;79;21125;-68
2021/04/16 06:46:44;;;;;;;2.90;2.43;;;;;;;3.61;60.96;95737.39;1818882;79;21157;-68
2021/04/16 06:49:28;;;;;;;3.52;2.47;;;;;;;3.81;61.40;95737.59;1819410;79;21134;-68
2021/04/16 06:52:16;;;;;;;3.23;2.00;;;;;;;3.89;61.53;95748.97;1819092;79;21128;-71
2021/04/16 06:55:11;;;;;;;3.90;3.50;;;;;;;3.93;60.68;95741.16;1819285;79;21129;-68
2021/04/16 06:57:54;;;;;;;3.30;2.67;;;;;;;4.00;60.47;95738.63;1778658;79;21136;-70
2021/04/16 07:00:36;;;;;;;3.10;2.60;;;;;;;3.90;60.92;95744.19;1782133;79;21137;-71
2021/04/16 07:03:25;;;;;;;3.35;2.65;;;;;;;4.00;61.53;95746.45;1819591;79;21113;-70
2021/04/16 07:06:01;;;;;;;5.17;3.77;;;;;;;4.05;62.41;95743.45;1819115;79;21137;-71
2021/04/16 07:08:36;;;;;;;3.57;2.80;;;;;;;4.11;61.67;95752.66;1819355;79;21125;-71
2021/04/16 07:11:24;;;;;;;65.60;26.03;;;;;;;4.30;61.21;95753.68;1819267;79;21121;-71
2021/04/16 07:13:53;;;;;;;5.63;3.70;;;;;;;4.37;62.14;95759.84;1780526;80;21121;-71
2021/04/16 07:16:23;;;;;;;6.13;5.00;;;;;;;4.29;62.90;95761.52;1749988;82;21144;-71
2021/04/16 07:18:59;;;;;;;3.90;2.93;;;;;;;4.35;63.23;95757.64;1819481;79;21535;-68
2021/04/16 07:21:26;;;;;;;5.27;3.10;;;;;;;4.31;63.98;95766.33;1787745;79;21129;-68
2021/04/16 07:24:00;;;;;;;2.87;2.30;;;;;;;4.20;63.50;95769.27;1819216;79;21093;-68
2021/04/16 07:26:50;;;;;;;3.33;3.03;;;;;;;4.15;63.60;95772.27;1818234;79;21184;-68
2021/04/16 07:29:44;;;;;;;3.20;2.73;;;;;;;4.17;63.88;95771.42;1824664;79;21140;-68
2021/04/16 07:32:35;;;;;;;3.47;3.00;;;;;;;4.17;63.62;95776.64;1825283;79;21527;-70
2021/04/16 07:35:34;;;;;;;3.07;2.30;;;;;;;4.10;62.61;95777.45;1824967;78;21152;-71
2021/04/16 07:38:14;;;;;;;3.30;2.20;;;;;;;4.07;63.27;95786.56;1825040;79;21117;-70
2021/04/16 07:40:46;;;;;;;2.60;2.00;;;;;;;4.01;63.95;95780.86;1825010;78;21562;-71
2021/04/16 07:43:35;;;;;;;3.87;3.07;;;;;;;3.95;63.47;95794.27;1825032;79;21097;-71
2021/04/16 07:46:04;;;;;;;3.77;2.90;;;;;;;3.98;63.56;95787.36;1825123;78;21563;-70
2021/04/16 07:48:33;;;;;;;2.97;2.40;;;;;;;3.93;63.80;95796.89;1824958;79;21156;-71
2021/04/16 07:51:10;;;;;;;2.77;2.17;;;;;;;4.22;63.57;95795.84;1824875;78;21594;-71
2021/04/16 07:53:44;;;;;;;3.20;2.40;;;;;;;4.53;63.82;95786.52;1825159;78;21141;-68
2021/04/16 07:56:22;;;;;;;4.23;2.67;;;;;;;4.71;62.01;95787.11;1824985;78;21125;-68
2021/04/16 07:59:10;;;;;;;15.83;9.90;;;;;;;4.95;62.43;95789.00;1824981;78;21125;-68
2021/04/16 08:01:47;;;;;;;3.93;2.73;;;;;;;5.20;62.94;95787.84;1825022;78;21128;-68
2021/04/16 08:04:30;;;;;;;1.87;1.67;;;;;;;5.19;60.97;95788.28;1825101;79;21112;-68
2021/04/16 08:07:32;;;;;;;2.20;1.80;;;;;;;5.06;60.87;95782.52;1825039;79;21145;-68
2021/04/16 08:10:05;;;;;;;4.00;2.97;;;;;;;5.08;61.21;95782.09;1825044;79;21578;-71
2021/04/16 08:12:33;;;;;;;3.05;2.75;;;;;;;5.15;63.39;95794.78;1822330;79;21145;-68
2021/04/16 08:15:23;;;;;;;3.17;2.87;;;;;;;5.26;60.54;95788.30;1825030;79;21543;-68
2021/04/16 08:17:50;;;;;;;2.63;2.23;;;;;;;5.30;59.77;95780.48;1824990;79;21141;-68
2021/04/16 08:20:24;;;;;;;3.93;2.70;;;;;;;5.50;58.02;95783.19;1825342;79;21305;-68
2021/04/16 08:22:54;;;;;;;2.77;2.20;;;;;;;5.69;59.99;95785.41;1821493;79;21535;-68
2021/04/16 08:25:33;;;;;;;2.07;1.77;;;;;;;5.93;59.46;95774.16;1825235;79;21152;-68
2021/04/16 08:28:12;;;;;;;1.30;1.20;;;;;;;6.15;58.05;95791.23;1824586;79;21140;-68
2021/04/16 08:31:01;;;;;;;2.30;1.87;;;;;;;6.22;57.61;95784.73;1825139;79;21138;-68
2021/04/16 08:33:48;;;;;;;1.70;1.60;;;;;;;6.22;56.71;95789.07;1825068;79;21142;-68
2021/04/16 08:36:27;;;;;;;4.13;2.60;;;;;;;6.49;57.38;95795.65;1825242;78;21093;-68
2021/04/16 08:39:14;;;;;;;1.87;1.63;;;;;;;6.35;53.82;95796.09;1825341;79;21239;-68
2021/04/16 08:41:53;;;;;;;3.00;2.50;;;;;;;6.43;58.22;95794.34;1825026;78;21129;-68
2021/04/16 08:44:22;;;;;;;3.50;3.00;;;;;;;6.69;54.65;95787.78;1825099;78;21130;-68
2021/04/16 08:46:53;;;;;;;2.80;2.30;;;;;;;6.76;52.82;95786.48;1824819;79;21156;-68
2021/04/16 08:49:31;;;;;;;2.53;2.30;;;;;;;6.73;55.29;95786.05;1825035;78;21602;-68
2021/04/16 08:52:15;;;;;;;2.33;2.13;;;;;;;6.79;54.08;95793.03;1824832;78;21115;-68
2021/04/16 08:54:47;;;;;;;4.00;3.27;;;;;;;6.76;53.19;95794.36;1825029;79;21528;-68
2021/04/16 08:57:30;;;;;;;3.50;3.10;;;;;;;7.01;53.20;95802.63;1795395;79;21271;-68
2021/04/16 09:00:09;;;;;;;1.60;1.50;;;;;;;7.30;54.86;95795.99;1795337;79;21133;-68
2021/04/16 09:02:50;;;;;;;3.77;3.30;;;;;;;7.23;53.24;95803.89;1822225;79;21136;-68
2021/04/16 09:05:34;;;;;;;4.37;3.57;;;;;;;7.15;55.25;95817.89;1824938;78;21082;-69
2021/04/16 09:08:17;;;;;;;2.80;2.30;;;;;;;6.99;53.59;95813.56;1824841;79;21116;-68
2021/04/16 09:10:53;;;;;;;3.30;2.93;;;;;;;7.13;54.04;95801.30;1824893;79;21101;-68
2021/04/16 09:13:44;;;;;;;2.20;2.00;;;;;;;7.00;54.15;95816.61;1824961;79;21085;-69
2021/04/16 09:16:22;;;;;;;3.27;2.83;;;;;;;7.06;52.70;95802.19;1822305;79;21145;-68
2021/04/16 09:18:53;;;;;;;3.30;2.93;;;;;;;7.17;52.78;95823.59;1825093;79;21130;-68
2021/04/16 09:21:31;;;;;;;2.40;1.77;;;;;;;7.10;51.53;95826.20;1824692;79;21567;-68
2021/04/16 09:24:11;;;;;;;2.83;2.40;;;;;;;6.89;49.88;95828.88;1824916;78;21109;-68
2021/04/16 09:26:51;;;;;;;2.83;2.53;;;;;;;6.71;52.04;95813.58;1825014;79;21638;-68
2021/04/16 09:29:33;;;;;;;2.27;1.77;;;;;;;6.58;50.91;95813.59;1820629;79;21128;-68
2021/04/16 09:32:04;;;;;;;2.60;2.40;;;;;;;6.65;52.37;95812.69;1819103;79;21124;-68
2021/04/16 09:34:49;;;;;;;2.07;1.87;;;;;;;6.63;52.26;95821.02;1818631;79;21094;-68
2021/04/16 09:37:39;;;;;;;2.53;2.33;;;;;;;6.69;52.93;95824.94;1819035;79;21086;-68
2021/04/16 09:40:28;;;;;;;2.30;2.10;;;;;;;7.11;53.92;95811.36;1819124;79;21117;-68
2021/04/16 09:43:13;;;;;;;2.40;2.20;;;;;;;7.23;48.85;95810.45;1818525;79;21121;-68
2021/04/16 09:45:48;;;;;;;2.07;1.87;;;;;;;7.37;48.49;95809.98;1818206;79;21140;-68
2021/04/16 09:48:24;;;;;;;1.80;1.60;;;;;;;7.23;49.33;95806.09;1819238;79;21532;-68
2021/04/16 09:51:03;;;;;;;2.27;2.07;;;;;;;7.43;47.13;95806.46;1818975;79;21125;-69
2021/04/16 09:53:35;;;;;;;1.70;1.60;;;;;;;7.73;47.66;95814.67;1819131;78;21495;-68
2021/04/16 09:56:11;;;;;;;2.33;2.13;;;;;;;7.77;46.54;95803.28;1819186;79;21118;-68
2021/04/16 09:58:53;;;;;;;2.47;2.20;;;;;;;7.60;45.09;95816.47;1819207;79;21566;-68
2021/04/16 10:01:26;;;;;;;2.87;2.10;;;;;;;7.42;46.52;95815.23;1819124;78;21122;-68
2021/04/16 10:04:07;;;;;;;2.73;2.37;;;;;;;7.00;46.01;95819.67;1819356;79;21504;-69
2021/04/16 10:06:43;;;;;;;4.57;2.63;;;;;;;7.18;49.22;95814.83;1819203;79;21141;-69
2021/04/16 10:09:22;;;;;;;3.73;2.43;;;;;;;7.33;48.84;95811.76;1819215;79;21550;-69
2021/04/16 10:12:01;;;;;;;2.07;1.73;;;;;;;7.17;48.52;95820.52;1819116;79;21153;-68
2021/04/16 10:14:35;;;;;;;1.50;1.33;;;;;;;7.43;51.81;95808.64;1819100;79;21137;-68
2021/04/16 10:17:18;;;;;;;2.40;1.90;;;;;;;7.39;47.06;95825.74;1819055;79;21541;-69
2021/04/16 10:19:54;;;;;;;2.58;2.33;;;;;;;7.52;47.95;95816.95;1819324;78;21126;-69
2021/04/16 10:22:38;;;;;;;2.00;1.70;;;;;;;7.84;50.54;95809.36;1814223;79;21128;-68
2021/04/16 10:26:25;;;;;;;2.20;2.00;;;;;;;8.19;45.78;95807.90;1819025;79;21109;-68
2021/04/16 10:29:25;;;;;;;2.97;2.77;;;;;;;8.27;48.65;95804.77;1814069;79;21586;-68
2021/04/16 10:47:33;;;;;;;4.17;3.27;;;;;;;8.71;44.30;95809.31;1819164;78;21118;-68
2021/04/16 12:39:02;;;;;;;4.78;3.20;;;;;;;13.45;34.11;95810.55;1818998;79;21117;-69
2021/04/16 12:41:38;;;;;;;4.28;3.83;;;;;;;13.08;31.35;95806.61;1819260;79;21137;-69
2021/04/16 12:44:08;;;;;;;4.05;3.67;;;;;;;12.49;31.64;95812.44;1819289;79;21113;-69
2021/04/16 12:46:38;;;;;;;3.42;3.12;;;;;;;12.96;33.88;95813.97;1819105;79;21144;-69
2021/04/16 12:49:08;;;;;;;3.17;2.98;;;;;;;13.52;31.65;95792.72;1819391;79;21531;-69
2021/04/16 12:51:35;;;;;;;3.60;3.30;;;;;;;13.80;29.67;95804.77;1818990;79;21121;-69
2021/04/16 12:54:03;;;;;;;4.15;3.60;;;;;;;13.29;32.56;95802.61;1819135;78;21582;-69
2021/04/16 12:56:37;;;;;;;2.80;2.60;;;;;;;13.76;34.34;95794.70;1819340;79;21136;-69
2021/04/16 12:59:12;;;;;;;4.30;3.85;;;;;;;14.44;29.82;95787.44;1819166;79;21125;-69
2021/04/16 13:01:43;;;;;;;3.58;3.27;;;;;;;14.41;29.71;95792.81;1818945;79;21125;-69
2021/04/16 13:04:13;;;;;;;2.85;2.55;;;;;;;14.28;28.58;95783.02;1819193;78;21122;-69
2021/04/16 13:06:44;;;;;;;3.42;3.10;;;;;;;14.38;29.37;95795.11;1819254;79;21594;-69
2021/04/16 13:09:15;;;;;;;3.45;3.15;;;;;;;14.14;31.14;95782.12;1819033;78;21136;-69
2021/04/16 13:11:43;;;;;;;3.37;3.08;;;;;;;14.75;29.80;95794.47;1819366;79;21145;-69
2021/04/16 13:14:10;;;;;;;3.85;3.10;;;;;;;15.30;29.41;95795.33;1819572;79;21299;-69
2021/04/16 13:16:38;;;;;;;3.50;3.20;;;;;;;15.29;26.08;95782.94;1819346;79;21545;-69
2021/04/16 13:19:13;;;;;;;4.25;3.85;;;;;;;15.06;29.38;95780.59;1818861;79;21848;-69
2021/04/16 13:21:42;;;;;;;3.67;3.37;;;;;;;15.41;29.80;95774.54;1818955;79;21173;-69
2021/04/16 13:24:11;;;;;;;3.15;2.95;;;;;;;15.61;29.84;95787.14;1819053;79;21120;-69
2021/04/16 13:26:39;;;;;;;3.45;3.15;;;;;;;15.39;27.44;95792.33;1818994;79;21161;-69
2021/04/16 13:29:06;;;;;;;3.05;2.85;;;;;;;14.64;27.35;95791.70;1819703;79;21180;-69
2021/04/16 13:31:36;;;;;;;3.65;3.35;;;;;;;14.60;28.05;95798.02;1822951;79;21140;-69
2021/04/16 13:34:05;;;;;;;4.05;3.75;;;;;;;14.47;30.21;95791.31;1822782;79;21124;-69
2021/04/16 13:36:34;;;;;;;4.10;3.70;;;;;;;15.37;29.52;95795.50;1822538;78;21274;-69
2021/04/16 13:39:06;;;;;;;4.53;3.47;;;;;;;15.00;29.41;95790.56;1822752;79;21696;-69
2021/04/16 13:41:36;;;;;;;4.12;3.83;;;;;;;14.59;28.46;95805.58;1822602;79;21251;-69
2021/04/16 13:44:05;;;;;;;4.17;3.87;;;;;;;14.91;31.82;95805.00;1822564;78;21274;-69
2021/04/16 13:46:37;;;;;;;3.75;3.45;;;;;;;15.42;28.09;95795.34;1822521;78;21713;-69
2021/04/16 13:49:09;;;;;;;4.37;3.98;;;;;;;15.12;27.67;95799.00;1822667;78;21263;-69
2021/04/16 13:51:37;;;;;;;3.80;3.10;;;;;;;15.32;27.26;95802.77;1822802;79;21116;-69
2021/04/16 13:54:07;;;;;;;4.25;3.85;;;;;;;15.44;26.61;95802.34;1822581;79;21275;-69
2021/04/16 13:56:36;;;;;;;4.25;3.95;;;;;;;14.88;30.03;95804.64;1795266;79;21136;-69
2021/04/16 13:59:03;;;;;;;4.65;4.20;;;;;;;15.38;31.10;95800.38;1822642;79;21259;-69
2021/04/16 14:01:33;;;;;;;4.08;3.72;;;;;;;15.32;27.14;95804.98;1822455;79;21263;-69
2021/04/16 14:04:05;;;;;;;5.47;4.72;;;;;;;15.06;27.63;95800.52;1822569;78;21267;-69
2021/04/16 14:06:37;;;;;;;4.60;4.20;;;;;;;15.22;28.97;95798.24;1822531;78;21267;-69
2021/04/16 14:09:14;;;;;;;3.15;2.95;;;;;;;15.35;29.10;95800.02;1822394;79;21247;-69
2021/04/16 14:11:41;;;;;;;4.70;4.30;;;;;;;14.93;28.08;95805.83;1822781;79;21673;-69